createdAt,value
2019-06-07T00:02:02.168Z,7.42
2019-06-07T00:04:32.424Z,7.67
2019-06-07T00:07:03.578Z,8.25
2019-06-07T00:09:33.984Z,7.58
2019-06-07T00:12:04.694Z,8.40
2019-06-07T00:14:35.204Z,8.05
2019-06-07T00:17:05.451Z,7.80
2019-06-07T00:19:35.733Z,7.42
2019-06-07T00:22:17.758Z,7.92
2019-06-07T00:24:38.175Z,7.70
2019-06-07T00:27:08.485Z,7.95
2019-06-07T00:29:40.097Z,8.13
2019-06-07T00:32:18.149Z,8.03
2019-06-07T00:34:47.552Z,8.00
2019-06-07T00:37:20.704Z,8.08
2019-06-07T00:40:12.732Z,7.50
2019-06-07T00:42:24.048Z,7.78
2019-06-07T00:44:54.121Z,8.20
2019-06-07T00:47:25.725Z,8.00
2019-06-07T00:49:56.453Z,7.75
2019-06-07T00:54:58.727Z,8.43
2019-06-07T00:57:28.985Z,9.00
2019-06-07T00:59:59.434Z,8.73
2019-06-07T01:02:31.657Z,9.15
2019-06-07T01:05:01.755Z,8.43
2019-06-07T01:07:33.538Z,8.70
2019-06-07T01:10:03.859Z,8.35
2019-06-07T01:12:34.099Z,8.63
2019-06-07T01:15:05.478Z,8.80
2019-06-07T01:17:50.096Z,8.23
2019-06-07T01:20:08.300Z,9.40
2019-06-07T01:22:38.589Z,9.10
2019-06-07T01:25:09.269Z,9.45
2019-06-07T01:27:39.710Z,9.35
2019-06-07T01:30:11.354Z,9.50
2019-06-07T01:32:43.813Z,10.13
2019-06-07T01:35:14.111Z,9.58
2019-06-07T01:37:44.362Z,9.58
2019-06-07T01:40:16.981Z,9.58
2019-06-07T01:42:48.156Z,9.85
2019-06-07T01:45:19.546Z,9.35
2019-06-07T01:47:50.243Z,10.35
2019-06-07T01:50:23.327Z,9.45
2019-06-07T01:52:53.648Z,9.50
2019-06-07T01:55:27.293Z,9.80
2019-06-07T01:57:55.800Z,9.98
2019-06-07T02:00:31.467Z,10.18
2019-06-07T02:02:57.977Z,10.50
2019-06-07T02:05:30.964Z,10.13
2019-06-07T02:08:00.167Z,10.20
2019-06-07T02:10:33.395Z,9.93
2019-06-07T02:13:02.506Z,10.00
2019-06-07T02:15:36.667Z,9.68
2019-06-07T02:18:04.686Z,10.13
2019-06-07T02:20:35.056Z,10.40
2019-06-07T02:23:06.501Z,10.13
2019-06-07T02:25:45.880Z,9.65
2019-06-07T02:28:27.646Z,10.20
2019-06-07T02:30:53.374Z,9.73
2019-06-07T02:33:13.606Z,9.40
2019-06-07T02:35:43.825Z,9.13
2019-06-07T02:38:14.128Z,9.90
2019-06-07T02:40:44.460Z,9.10
2019-06-07T02:43:15.982Z,9.43
2019-06-07T02:45:46.241Z,9.13
2019-06-07T02:48:16.434Z,9.03
2019-06-07T02:50:46.903Z,8.70
2019-06-07T02:53:17.175Z,9.05
2019-06-07T02:56:33.901Z,9.08
2019-06-07T02:58:19.530Z,9.33
2019-06-07T03:01:09.000Z,9.63
2019-06-07T03:03:22.794Z,9.53
2019-06-07T03:05:52.965Z,9.75
2019-06-07T03:08:23.230Z,9.15
2019-06-07T03:10:53.480Z,9.75
2019-06-07T03:13:28.495Z,9.88
2019-06-07T03:15:58.399Z,10.00
2019-06-07T03:18:47.040Z,9.80
2019-06-07T03:21:21.812Z,9.63
2019-06-07T03:23:56.270Z,9.70
2019-06-07T03:26:30.441Z,10.32
2019-06-07T03:29:00.843Z,10.10
2019-06-07T03:31:38.094Z,10.15
2019-06-07T03:34:03.017Z,10.18
2019-06-07T03:36:35.375Z,10.80
2019-06-07T03:39:06.795Z,10.72
2019-06-07T03:41:49.919Z,10.38
2019-06-07T03:44:09.214Z,10.68
2019-06-07T03:46:41.564Z,10.88
2019-06-07T03:49:11.526Z,10.48
2019-06-07T03:51:41.830Z,10.82
2019-06-07T03:54:12.342Z,11.68
2019-06-07T03:56:42.609Z,11.83
2019-06-07T03:59:12.892Z,11.12
2019-06-07T04:01:43.230Z,10.85
2019-06-07T04:04:13.477Z,11.00
2019-06-07T04:06:43.908Z,10.28
2019-06-07T04:09:14.183Z,10.72
2019-06-07T04:11:44.837Z,11.08
2019-06-07T04:14:15.288Z,10.53
2019-06-07T04:16:45.591Z,10.28
2019-06-07T04:19:16.021Z,11.33
2019-06-07T04:21:46.301Z,11.93
2019-06-07T04:24:16.569Z,10.88
2019-06-07T04:26:46.980Z,15.10
2019-06-07T04:29:41.398Z,11.25
2019-06-07T04:31:49.297Z,11.45
2019-06-07T04:34:19.616Z,11.00
2019-06-07T04:36:58.555Z,11.48
2019-06-07T04:39:25.531Z,10.63
2019-06-07T04:41:57.199Z,10.43
2019-06-07T04:44:28.866Z,10.98
2019-06-07T04:47:02.544Z,11.57
2019-06-07T04:49:38.114Z,11.22
2019-06-07T04:52:07.271Z,10.40
2019-06-07T04:54:40.630Z,11.78
2019-06-07T04:57:09.864Z,11.10
2019-06-07T05:00:11.156Z,9.05
2019-06-07T05:02:12.698Z,11.93
2019-06-07T05:04:44.055Z,11.18
2019-06-07T05:07:14.898Z,11.63
2019-06-07T05:09:45.163Z,11.05
2019-06-07T05:12:15.451Z,10.70
2019-06-07T05:14:45.750Z,10.68
2019-06-07T05:17:15.958Z,10.70
2019-06-07T05:19:46.193Z,10.75
2019-06-07T05:22:16.406Z,11.08
2019-06-07T05:24:47.080Z,10.90
2019-06-07T05:27:17.963Z,11.00
2019-06-07T05:30:08.933Z,11.00
2019-06-07T05:32:20.431Z,10.80
2019-06-07T05:34:50.961Z,10.40
2019-06-07T05:37:21.220Z,11.00
2019-06-07T05:39:51.631Z,11.22
2019-06-07T05:42:21.927Z,10.53
2019-06-07T05:44:52.137Z,9.45
2019-06-07T05:47:25.509Z,9.38
2019-06-07T05:49:55.864Z,9.90
2019-06-07T05:52:26.127Z,11.20
2019-06-07T05:54:56.421Z,11.63
2019-06-07T05:57:26.754Z,11.48
2019-06-07T05:59:57.083Z,12.25
2019-06-07T06:02:27.684Z,10.00
2019-06-07T06:04:57.985Z,11.53
2019-06-07T06:07:28.795Z,12.68
2019-06-07T06:09:59.162Z,10.75
2019-06-07T06:12:35.295Z,10.08
2019-06-07T06:15:01.592Z,11.20
2019-06-07T06:17:32.102Z,11.60
2019-06-07T06:20:02.346Z,12.68
2019-06-07T06:22:32.862Z,12.65
2019-06-07T06:25:34.291Z,11.60
2019-06-07T06:30:10.454Z,12.40
2019-06-07T06:32:50.726Z,12.47
2019-06-07T06:35:14.366Z,9.18
2019-06-07T06:37:49.643Z,11.55
2019-06-07T06:40:17.306Z,11.93
2019-06-07T06:42:50.092Z,10.43
2019-06-07T06:45:19.886Z,10.43
2019-06-07T06:47:50.739Z,12.28
2019-06-07T06:50:22.498Z,10.93
2019-06-07T06:52:54.666Z,11.73
2019-06-07T06:55:25.163Z,11.03
2019-06-07T06:57:55.652Z,11.38
2019-06-07T07:00:58.106Z,9.05
2019-06-07T07:03:56.082Z,10.13
2019-06-07T07:05:54.941Z,9.95
2019-06-07T07:08:26.088Z,8.80
2019-06-07T07:10:56.312Z,10.53
2019-06-07T07:13:26.780Z,9.70
2019-06-07T07:15:58.381Z,10.48
2019-06-07T07:18:28.969Z,9.33
2019-06-07T07:20:59.251Z,8.03
2019-06-07T07:23:29.572Z,8.63
2019-06-07T07:26:00.373Z,8.98
2019-06-07T07:28:30.600Z,10.30
2019-06-07T07:31:00.882Z,8.75
2019-06-07T07:34:20.605Z,9.13
2019-06-07T07:36:19.348Z,8.60
2019-06-07T07:38:35.762Z,9.30
2019-06-07T07:41:14.597Z,9.25
2019-06-07T07:43:38.351Z,9.73
2019-06-07T07:46:28.505Z,8.68
2019-06-07T07:48:40.857Z,8.15
2019-06-07T07:51:11.130Z,7.87
2019-06-07T07:53:51.662Z,7.90
2019-06-07T07:56:13.522Z,8.10
2019-06-07T07:58:48.740Z,8.00
2019-06-07T08:01:15.898Z,8.15
2019-06-07T08:03:46.319Z,8.13
2019-06-07T08:06:16.549Z,7.70
2019-06-07T08:08:46.849Z,8.00
2019-06-07T08:11:17.144Z,7.70
2019-06-07T08:13:48.102Z,7.72
2019-06-07T08:16:19.006Z,8.03
2019-06-07T08:18:52.801Z,7.90
2019-06-07T08:21:26.237Z,8.35
2019-06-07T08:23:58.233Z,7.85
2019-06-07T08:26:25.639Z,7.70
2019-06-07T08:28:59.027Z,8.30
2019-06-07T08:31:27.905Z,7.95
2019-06-07T08:34:00.506Z,7.92
2019-06-07T08:36:42.033Z,7.67
2019-06-07T08:39:07.266Z,8.15
2019-06-07T08:41:34.571Z,8.15
2019-06-07T08:44:22.918Z,7.60
2019-06-07T08:46:37.098Z,7.60
2019-06-07T08:49:07.455Z,7.72
2019-06-07T08:51:37.788Z,7.47
2019-06-07T08:54:21.858Z,7.05
2019-06-07T08:56:40.215Z,7.08
2019-06-07T08:59:11.772Z,7.35
2019-06-07T09:01:42.155Z,6.72
2019-06-07T09:04:12.788Z,7.20
2019-06-07T09:09:15.127Z,6.50
2019-06-07T09:11:45.363Z,6.45
2019-06-07T09:14:15.618Z,7.20
2019-06-07T09:16:46.355Z,7.45
2019-06-07T09:19:16.645Z,6.78
2019-06-07T09:21:47.411Z,6.30
2019-06-07T09:24:17.675Z,6.72
2019-06-07T09:26:48.730Z,7.10
2019-06-07T09:29:19.635Z,6.28
2019-06-07T09:31:53.248Z,6.30
2019-06-07T09:34:22.057Z,6.50
2019-06-07T09:36:53.384Z,6.12
2019-06-07T09:39:24.784Z,5.17
2019-06-07T09:41:56.305Z,5.50
2019-06-07T09:44:28.302Z,4.87
2019-06-07T09:47:20.130Z,5.37
2019-06-07T09:49:33.282Z,5.25
2019-06-07T09:52:09.155Z,5.37
2019-06-07T09:55:05.876Z,5.28
2019-06-07T09:57:16.447Z,5.72
2019-06-07T09:59:40.730Z,5.72
2019-06-07T10:02:13.599Z,4.97
2019-06-07T10:04:43.380Z,5.22
2019-06-07T10:07:30.543Z,5.17
2019-06-07T10:12:19.166Z,4.78
2019-06-07T10:14:49.737Z,5.20
2019-06-07T10:17:19.918Z,5.10
2019-06-07T10:19:50.218Z,5.28
2019-06-07T10:22:20.397Z,5.62
2019-06-07T10:24:50.670Z,5.42
2019-06-07T10:27:21.230Z,5.30
2019-06-07T10:29:51.370Z,4.50
2019-06-07T10:32:21.787Z,4.95
2019-06-07T10:34:52.352Z,4.67
2019-06-07T10:37:22.803Z,5.30
2019-06-07T10:39:53.519Z,5.28
2019-06-07T10:42:23.816Z,5.30
2019-06-07T10:44:54.550Z,5.40
2019-06-07T10:47:24.741Z,5.20
2019-06-07T10:49:55.314Z,4.90
2019-06-07T10:52:25.708Z,5.12
2019-06-07T10:54:55.968Z,4.90
2019-06-07T10:57:26.283Z,4.50
2019-06-07T10:59:56.504Z,4.83
2019-06-07T11:02:27.014Z,4.97
2019-06-07T11:04:57.298Z,4.45
2019-06-07T11:07:27.722Z,4.30
2019-06-07T11:10:07.176Z,4.10
2019-06-07T11:12:29.966Z,4.20
2019-06-07T11:15:00.162Z,4.10
2019-06-07T11:17:30.438Z,4.30
2019-06-07T11:20:03.336Z,4.08
2019-06-07T11:22:33.624Z,4.25
2019-06-07T11:25:05.859Z,4.15
2019-06-07T11:27:36.329Z,3.80
2019-06-07T11:30:08.349Z,4.05
2019-06-07T11:32:38.897Z,3.80
2019-06-07T11:35:11.700Z,3.80
2019-06-07T11:37:45.465Z,4.10
2019-06-07T11:40:33.241Z,3.90
2019-06-07T11:42:52.554Z,4.40
2019-06-07T11:45:21.429Z,4.00
2019-06-07T11:47:51.665Z,3.90
2019-06-07T11:50:22.020Z,4.00
2019-06-07T11:52:55.332Z,3.83
2019-06-07T11:55:25.513Z,4.22
2019-06-07T11:57:55.811Z,4.17
2019-06-07T12:00:26.693Z,3.83
2019-06-07T12:02:56.920Z,3.80
2019-06-07T12:05:27.213Z,3.85
2019-06-07T12:07:58.015Z,4.00
2019-06-07T12:10:41.808Z,3.80
2019-06-07T12:13:00.624Z,3.87
2019-06-07T12:15:30.884Z,3.55
2019-06-07T12:18:01.655Z,3.75
2019-06-07T12:20:31.908Z,4.20
2019-06-07T12:23:02.280Z,4.00
2019-06-07T12:25:32.589Z,3.60
2019-06-07T12:28:03.104Z,3.72
2019-06-07T12:30:33.677Z,3.35
2019-06-07T12:33:03.960Z,3.55
2019-06-07T12:35:34.754Z,3.87
2019-06-07T12:38:05.077Z,3.35
2019-06-07T12:40:35.489Z,3.37
2019-06-07T12:43:07.079Z,3.37
2019-06-07T12:45:45.241Z,3.70
2019-06-07T12:48:09.546Z,3.25
2019-06-07T12:50:43.247Z,3.40
2019-06-07T12:53:13.477Z,3.20
2019-06-07T12:55:44.437Z,3.22
2019-06-07T12:58:15.817Z,3.50
2019-06-07T13:00:46.823Z,3.87
2019-06-07T13:03:18.297Z,4.78
2019-06-07T13:05:49.111Z,4.17
2019-06-07T13:08:19.823Z,4.00
2019-06-07T13:10:50.359Z,4.40
2019-06-07T13:13:21.405Z,4.00
2019-06-07T13:15:52.431Z,3.87
2019-06-07T13:18:23.805Z,3.92
2019-06-07T13:20:55.620Z,4.08
2019-06-07T13:23:26.307Z,3.83
2019-06-07T13:25:56.575Z,3.72
2019-06-07T13:28:26.864Z,4.00
2019-06-07T13:30:57.137Z,3.60
2019-06-07T13:33:33.884Z,3.65
2019-06-07T13:35:59.567Z,3.10
2019-06-07T13:38:30.046Z,3.58
2019-06-07T13:41:00.299Z,3.75
2019-06-07T13:43:30.902Z,3.83
2019-06-07T13:46:01.155Z,3.67
2019-06-07T13:48:31.472Z,3.45
2019-06-07T13:51:01.996Z,3.60
2019-06-07T13:53:33.455Z,3.72
2019-06-07T13:56:03.716Z,3.62
2019-06-07T13:58:33.904Z,3.45
2019-06-07T14:01:04.220Z,3.70
2019-06-07T14:03:34.687Z,3.22
2019-06-07T14:06:05.028Z,3.25
2019-06-07T14:08:36.031Z,3.60
2019-06-07T14:11:06.377Z,3.60
2019-06-07T14:13:36.666Z,3.52
2019-06-07T14:16:07.214Z,3.80
2019-06-07T14:18:37.484Z,4.28
2019-06-07T14:21:08.045Z,4.05
2019-06-07T14:23:48.298Z,4.30
2019-06-07T14:26:10.932Z,4.05
2019-06-07T14:28:41.104Z,4.35
2019-06-07T14:31:11.461Z,4.40
2019-06-07T14:33:41.734Z,4.25
2019-06-07T14:36:11.970Z,4.53
2019-06-07T14:38:42.228Z,4.30
2019-06-07T14:41:15.486Z,4.08
2019-06-07T14:43:46.195Z,3.95
2019-06-07T14:46:16.628Z,4.40
2019-06-07T14:48:46.934Z,4.50
2019-06-07T14:51:17.484Z,4.33
2019-06-07T14:53:50.923Z,4.30
2019-06-07T14:56:21.348Z,4.50
2019-06-07T14:58:51.642Z,3.80
2019-06-07T15:01:22.938Z,3.90
2019-06-07T15:03:53.240Z,3.85
2019-06-07T15:06:23.478Z,3.72
2019-06-07T15:08:56.841Z,3.72
2019-06-07T15:11:28.848Z,3.62
2019-06-07T15:13:59.601Z,3.42
2019-06-07T15:16:30.544Z,3.42
2019-06-07T15:19:01.851Z,3.58
2019-06-07T15:21:32.922Z,3.83
2019-06-07T15:24:03.436Z,3.90
2019-06-07T15:26:34.569Z,4.10
2019-06-07T15:29:05.339Z,4.05
2019-06-07T15:31:36.730Z,4.30
2019-06-07T15:34:08.219Z,4.67
2019-06-07T15:36:38.908Z,4.80
2019-06-07T15:39:09.144Z,4.28
2019-06-07T15:41:39.901Z,4.35
2019-06-07T15:44:10.390Z,4.10
2019-06-07T15:46:40.664Z,3.87
2019-06-07T15:49:12.533Z,4.20
2019-06-07T15:51:42.947Z,4.03
2019-06-07T15:54:14.359Z,4.00
2019-06-07T15:56:45.400Z,4.15
2019-06-07T15:59:15.665Z,3.90
2019-06-07T16:01:46.740Z,4.50
2019-06-07T16:04:17.074Z,4.17
2019-06-07T16:06:47.856Z,4.25
2019-06-07T16:09:21.170Z,5.60
2019-06-07T16:11:51.681Z,5.83
2019-06-07T16:14:22.271Z,5.83
2019-06-07T16:16:52.796Z,6.35
2019-06-07T16:19:23.203Z,5.87
2019-06-07T16:21:53.479Z,5.87
2019-06-07T16:24:23.921Z,5.17
2019-06-07T16:26:54.161Z,5.58
2019-06-07T16:29:24.427Z,5.35
2019-06-07T16:31:54.737Z,6.10
2019-06-07T16:34:25.180Z,6.28
2019-06-07T16:36:55.896Z,6.45
2019-06-07T16:39:26.134Z,5.58
2019-06-07T16:41:56.404Z,6.58
2019-06-07T16:44:26.856Z,5.90
2019-06-07T16:46:57.142Z,6.67
2019-06-07T16:49:27.589Z,5.90
2019-06-07T16:51:57.935Z,6.03
2019-06-07T16:54:28.193Z,6.15
2019-06-07T16:56:59.911Z,6.75
2019-06-07T16:59:30.171Z,5.20
2019-06-07T17:02:00.477Z,5.03
2019-06-07T17:04:30.770Z,5.80
2019-06-07T17:07:01.079Z,6.05
2019-06-07T17:09:31.359Z,6.37
2019-06-07T17:12:01.661Z,6.12
2019-06-07T17:14:31.936Z,6.15
2019-06-07T17:17:02.250Z,7.20
2019-06-07T17:19:32.548Z,6.62
2019-06-07T17:22:03.144Z,6.60
2019-06-07T17:24:33.603Z,7.62
2019-06-07T17:27:05.458Z,7.12
2019-06-07T17:29:36.730Z,7.17
2019-06-07T17:32:07.247Z,6.90
2019-06-07T17:34:39.883Z,7.05
2019-06-07T17:37:10.645Z,6.53
2019-06-07T17:39:40.930Z,7.10
2019-06-07T17:42:11.510Z,6.97
2019-06-07T17:44:42.873Z,6.45
2019-06-07T17:47:13.506Z,7.10
2019-06-07T17:49:44.240Z,7.20
2019-06-07T17:52:14.564Z,7.42
2019-06-07T17:54:45.895Z,6.72
2019-06-07T17:57:16.240Z,7.55
2019-06-07T17:59:46.708Z,7.42
2019-06-07T18:02:17.004Z,7.80
2019-06-07T18:04:47.600Z,7.72
2019-06-07T18:07:19.050Z,7.60
2019-06-07T18:09:49.706Z,6.75
2019-06-07T18:12:19.928Z,8.18
2019-06-07T18:14:50.496Z,6.75
2019-06-07T18:17:33.651Z,8.23
2019-06-07T18:19:53.011Z,7.90
2019-06-07T18:22:24.374Z,8.35
2019-06-07T18:24:54.782Z,7.97
2019-06-07T18:27:25.258Z,7.33
2019-06-07T18:29:57.299Z,6.90
2019-06-07T18:32:27.575Z,6.92
2019-06-07T18:35:00.256Z,7.15
2019-06-07T18:37:30.025Z,8.00
2019-06-07T18:40:00.461Z,7.12
2019-06-07T18:42:31.070Z,7.22
2019-06-07T18:45:01.366Z,7.37
2019-06-07T18:47:32.122Z,7.08
2019-06-07T18:50:02.534Z,7.28
2019-06-07T18:52:35.377Z,7.75
2019-06-07T18:55:06.415Z,7.97
2019-06-07T18:57:36.952Z,7.47
2019-06-07T19:00:08.942Z,7.65
2019-06-07T19:02:39.503Z,7.83
2019-06-07T19:05:11.049Z,8.55
2019-06-07T19:07:42.291Z,7.92
2019-06-07T19:10:14.875Z,8.65
2019-06-07T19:12:45.341Z,8.63
2019-06-07T19:15:16.912Z,8.00
2019-06-07T19:17:47.771Z,7.62
2019-06-07T19:20:20.118Z,8.38
2019-06-07T19:22:50.570Z,8.53
2019-06-07T19:25:21.427Z,9.38
2019-06-07T19:27:52.714Z,9.48
2019-06-07T19:30:23.903Z,10.20
2019-06-07T19:32:55.099Z,9.95
2019-06-07T19:35:25.886Z,9.85
2019-06-07T19:37:56.272Z,10.15
2019-06-07T19:40:26.534Z,10.55
2019-06-07T19:42:58.369Z,11.22
2019-06-07T19:45:31.520Z,12.10
2019-06-07T19:48:02.825Z,11.68
2019-06-07T19:50:33.342Z,12.45
2019-06-07T19:53:04.612Z,13.13
2019-06-07T19:55:35.210Z,13.05
2019-06-07T19:58:05.505Z,12.80
2019-06-07T20:00:35.789Z,14.38
2019-06-07T20:03:06.067Z,14.20
2019-06-07T20:05:36.673Z,15.00
2019-06-07T20:08:07.392Z,15.55
2019-06-07T20:10:37.786Z,14.95
2019-06-07T20:13:08.096Z,16.55
2019-06-07T20:15:38.445Z,16.15
2019-06-07T20:18:08.805Z,17.07
2019-06-07T20:20:39.116Z,16.23
2019-06-07T20:23:09.416Z,15.88
2019-06-07T20:25:39.695Z,16.62
2019-06-07T20:28:10.072Z,17.25
2019-06-07T20:30:41.242Z,17.12
2019-06-07T20:33:12.191Z,18.60
2019-06-07T20:35:42.894Z,17.65
2019-06-07T20:38:13.551Z,18.02
2019-06-07T20:40:43.816Z,17.32
2019-06-07T20:43:14.625Z,18.00
2019-06-07T20:45:44.925Z,18.23
2019-06-07T20:48:16.586Z,18.35
2019-06-07T20:50:47.106Z,18.40
2019-06-07T20:53:17.639Z,18.10
2019-06-07T20:55:47.978Z,18.57
2019-06-07T20:58:18.367Z,17.82
2019-06-07T21:00:48.943Z,18.00
2019-06-07T21:03:19.382Z,17.10
2019-06-07T21:05:49.672Z,18.37
2019-06-07T21:08:19.924Z,16.85
2019-06-07T21:10:50.215Z,17.67
2019-06-07T21:13:20.491Z,18.67
2019-06-07T21:15:50.976Z,19.02
2019-06-07T21:18:21.165Z,18.90
2019-06-07T21:20:51.654Z,19.80
2019-06-07T21:23:23.255Z,18.57
2019-06-07T21:25:53.371Z,19.57
2019-06-07T21:28:23.848Z,19.20
2019-06-07T21:30:54.199Z,19.92
2019-06-07T21:33:24.574Z,18.60
2019-06-07T21:35:54.791Z,18.35
2019-06-07T21:38:25.403Z,18.60
2019-06-07T21:40:55.667Z,19.23
2019-06-07T21:43:26.026Z,19.12
2019-06-07T21:46:06.458Z,20.20
2019-06-07T21:48:28.570Z,18.50
2019-06-07T21:50:58.890Z,18.77
2019-06-07T21:53:29.150Z,17.12
2019-06-07T21:55:59.410Z,17.45
2019-06-07T21:58:29.709Z,17.95
2019-06-07T22:01:14.387Z,17.37
2019-06-07T22:03:45.961Z,18.92
2019-06-07T22:06:16.790Z,18.12
2019-06-07T22:08:47.152Z,18.48
2019-06-07T22:11:17.430Z,18.60
2019-06-07T22:13:47.705Z,18.32
2019-06-07T22:16:28.430Z,18.95
2019-06-07T22:18:50.018Z,18.77
2019-06-07T22:21:20.430Z,19.73
2019-06-07T22:23:50.794Z,19.57
2019-06-07T22:26:21.372Z,20.57
2019-06-07T22:28:51.642Z,20.05
2019-06-07T22:31:22.126Z,19.50
2019-06-07T22:33:54.195Z,19.45
2019-06-07T22:36:26.905Z,19.82
2019-06-07T22:38:57.224Z,20.30
2019-06-07T22:41:27.630Z,21.37
2019-06-07T22:43:58.171Z,22.25
2019-06-07T22:46:37.534Z,20.85
2019-06-07T22:49:00.672Z,20.95
2019-06-07T22:51:31.056Z,21.82
2019-06-07T22:54:01.332Z,23.52
2019-06-07T22:56:42.803Z,22.95
2019-06-07T22:59:16.736Z,23.65
2019-06-07T23:01:45.060Z,23.70
2019-06-07T23:04:16.473Z,23.10
2019-06-07T23:06:46.886Z,22.90
2019-06-07T23:09:17.189Z,22.00
2019-06-07T23:11:47.440Z,22.07
2019-06-07T23:14:17.865Z,22.48
2019-06-07T23:16:55.289Z,22.20
2019-06-07T23:19:20.517Z,23.15
2019-06-07T23:21:50.956Z,21.45
2019-06-07T23:24:21.569Z,21.60
2019-06-07T23:26:52.094Z,23.00
2019-06-07T23:29:22.386Z,21.68
2019-06-07T23:31:52.613Z,21.02
2019-06-07T23:34:24.068Z,21.40
2019-06-07T23:36:54.371Z,20.97
2019-06-07T23:39:25.509Z,21.90
2019-06-07T23:41:55.805Z,20.77
2019-06-07T23:44:26.071Z,21.25
2019-06-07T23:47:10.388Z,21.80
2019-06-07T23:49:28.508Z,22.13
2019-06-07T23:51:59.425Z,23.07
2019-06-07T23:54:29.908Z,22.05
2019-06-07T23:57:00.175Z,22.87
2019-06-07T23:59:30.559Z,22.00
